Time;durP1;ratioP1;P1;durP2;ratioP2;P2;SDS_P1;SDS_P2;PMS_P1;PMS_P2;Temp;Humidity;BMP_temperature;BMP_pressure;BME280_temperature;BME280_humidity;BME280_pressure;Samples;Min_cycle;Max_cycle;Signal;HPM_P1;HPM_P2
2024/04/10 00:01:32;;;;;;;;;;;;;;;6.60;84.36;99121.09;5378489;26;19940;-88
2024/04/10 00:03:57;;;;;;;;;;;;;;;6.85;84.61;99119.69;5383242;26;19934;-89
2024/04/10 00:06:23;;;;;;;;;;;;;;;6.66;85.22;99115.22;5376932;26;19942;-88
2024/04/10 00:08:48;;;;;;;;;;;;;;;6.64;85.38;99111.56;5377951;26;19940;-87
2024/04/10 00:11:14;;;;;;;;;;;;;;;6.50;85.59;99105.56;5438411;26;19929;-88
2024/04/10 00:13:39;;;;;;;;;;;;;;;6.20;86.38;99110.22;5422552;26;19966;-88
2024/04/10 00:16:08;;;;;;;;;;;;;;;6.13;87.17;99123.94;5391452;26;19946;-88
2024/04/10 00:18:35;;;;;;;;;;;;;;;6.09;87.45;99135.25;5356895;26;19958;-90
2024/04/10 00:21:00;;;;;;;;;;;;;;;6.15;86.94;99144.41;5330775;26;19936;-89
2024/04/10 00:23:26;;;;;;;;;;;;;;;6.15;87.46;99147.06;5356822;26;19938;-88
2024/04/10 00:26:02;;;;;;;;;;;;;;;6.16;87.69;99147.97;5362324;26;19933;-89
2024/04/10 00:28:28;;;;;;;;;;;;;;;6.17;87.35;99158.63;5368473;26;19941;-88
2024/04/10 00:30:53;;;;;;;;;;;;;;;6.18;87.42;99148.97;5360045;26;19945;-88
2024/04/10 00:33:19;;;;;;;;;;;;;;;5.85;88.61;99154.25;5361468;26;19929;-89
2024/04/10 00:35:54;;;;;;;;;;;;;;;5.59;89.13;99160.72;5361394;26;19937;-88
2024/04/10 00:38:20;;;;;;;;;;;;;;;5.60;90.57;99161.66;5367702;26;19929;-90
2024/04/10 00:40:51;;;;;;;;;;;;;;;5.71;90.55;99157.88;5382020;26;19977;-88
2024/04/10 00:43:17;;;;;;;;;;;;;;;5.60;90.73;99169.59;5368069;26;19944;-88
2024/04/10 00:45:43;;;;;;;;;;;;;;;5.75;90.92;99159.88;5367320;26;20429;-88
2024/04/10 00:48:08;;;;;;;;;;;;;;;5.61;91.12;99160.84;5427322;26;19930;-88
2024/04/10 00:50:33;;;;;;;;;;;;;;;5.38;91.29;99163.09;5362842;26;19985;-88
2024/04/10 00:52:59;;;;;;;;;;;;;;;5.30;91.64;99168.78;5365812;26;19937;-89
2024/04/10 00:55:25;;;;;;;;;;;;;;;5.49;91.70;99174.28;5361406;26;19930;-87
2024/04/10 00:57:50;;;;;;;;;;;;;;;5.40;92.06;99165.81;5418867;26;19938;-89
2024/04/10 01:00:16;;;;;;;;;;;;;;;5.34;91.77;99181.38;5382059;26;19969;-88
2024/04/10 01:02:42;;;;;;;;;;;;;;;5.12;92.58;99180.13;5365834;26;19937;-89
2024/04/10 01:05:07;;;;;;;;;;;;;;;5.12;92.84;99179.22;5372826;26;21123;-88
2024/04/10 01:07:34;;;;;;;;;;;;;;;5.13;92.69;99178.41;5423833;26;19942;-90
2024/04/10 01:09:59;;;;;;;;;;;;;;;5.09;92.88;99182.63;5366409;26;19981;-89
2024/04/10 01:12:28;;;;;;;;;;;;;;;5.06;92.94;99185.06;5359604;26;20020;-89
2024/04/10 01:14:53;;;;;;;;;;;;;;;4.88;93.19;99190.19;5353598;26;20004;-88
2024/04/10 01:17:19;;;;;;;;;;;;;;;5.04;94.34;99181.44;5396671;26;19930;-88
2024/04/10 01:19:44;;;;;;;;;;;;;;;5.00;93.03;99194.38;5355652;26;19933;-88
2024/04/10 01:22:10;;;;;;;;;;;;;;;4.79;93.39;99196.66;5369050;26;20436;-88
2024/04/10 01:24:35;;;;;;;;;;;;;;;4.77;94.98;99190.38;5363217;26;19950;-88
2024/04/10 01:27:00;;;;;;;;;;;;;;;4.55;95.33;99189.13;5367439;26;19930;-88
2024/04/10 01:29:26;;;;;;;;;;;;;;;4.54;94.99;99196.94;5368722;26;19957;-88
2024/04/10 01:31:51;;;;;;;;;;;;;;;4.72;96.47;99207.72;5353530;26;19930;-89
2024/04/10 01:34:16;;;;;;;;;;;;;;;4.69;95.81;99203.13;5332096;26;19945;-89
2024/04/10 01:36:42;;;;;;;;;;;;;;;4.61;96.21;99202.69;5368101;26;20723;-88
2024/04/10 01:39:08;;;;;;;;;;;;;;;4.75;96.52;99213.19;5372342;26;19937;-88
2024/04/10 01:41:33;;;;;;;;;;;;;;;4.87;96.21;99214.81;5418733;26;20031;-88
2024/04/10 01:43:58;;;;;;;;;;;;;;;4.84;95.78;99217.28;5405765;26;19949;-88
2024/04/10 01:46:24;;;;;;;;;;;;;;;4.97;95.61;99216.25;5387324;26;20524;-88
2024/04/10 01:48:49;;;;;;;;;;;;;;;4.97;95.79;99215.34;5352822;26;19929;-88
2024/04/10 01:51:14;;;;;;;;;;;;;;;4.94;95.67;99217.84;5369088;26;19969;-89
2024/04/10 01:53:40;;;;;;;;;;;;;;;4.95;95.43;99225.84;5367577;26;19929;-88
2024/04/10 01:56:05;;;;;;;;;;;;;;;4.97;94.99;99228.56;5355027;26;20832;-89
2024/04/10 01:58:31;;;;;;;;;;;;;;;5.06;94.77;99235.31;5375523;26;20279;-88
2024/04/10 02:00:57;;;;;;;;;;;;;;;5.07;94.71;99233.56;5364018;26;19998;-90
2024/04/10 02:03:22;;;;;;;;;;;;;;;5.08;94.25;99232.78;5361481;26;19938;-91
2024/04/10 02:05:47;;;;;;;;;;;;;;;5.12;94.48;99240.03;5359613;26;19937;-90
2024/04/10 02:08:13;;;;;;;;;;;;;;;5.18;94.30;99237.78;5398389;26;19925;-90
2024/04/10 02:10:38;;;;;;;;;;;;;;;5.16;94.00;99244.69;5435014;26;19930;-89
2024/04/10 02:13:03;;;;;;;;;;;;;;;5.16;94.11;99234.13;5367231;26;20369;-88
2024/04/10 02:15:29;;;;;;;;;;;;;;;5.11;93.35;99235.59;5380136;26;20254;-87
2024/04/10 02:17:55;;;;;;;;;;;;;;;5.13;93.93;99244.53;5386283;26;19937;-91
2024/04/10 02:20:21;;;;;;;;;;;;;;;5.14;93.86;99243.72;5374737;26;19952;-88
2024/04/10 02:22:47;;;;;;;;;;;;;;;5.07;94.13;99238.88;5364925;26;19930;-89
2024/04/10 02:25:13;;;;;;;;;;;;;;;5.15;93.87;99243.78;5365370;26;19938;-88
2024/04/10 02:27:38;;;;;;;;;;;;;;;5.00;94.60;99248.19;5408620;26;19934;-90
2024/04/10 02:30:06;;;;;;;;;;;;;;;4.93;94.50;99248.63;5357258;26;19936;-88
2024/04/10 02:32:32;;;;;;;;;;;;;;;4.85;94.75;99252.56;5346887;26;19930;-88
2024/04/10 02:34:57;;;;;;;;;;;;;;;4.77;95.38;99244.16;5362850;26;19930;-89
2024/04/10 02:37:23;;;;;;;;;;;;;;;4.75;95.67;99259.03;5386687;26;19980;-88
2024/04/10 02:39:49;;;;;;;;;;;;;;;4.82;95.99;99261.22;5396318;26;19950;-88
2024/04/10 02:42:14;;;;;;;;;;;;;;;4.69;95.58;99257.72;5363110;26;20769;-88
2024/04/10 02:44:39;;;;;;;;;;;;;;;4.78;96.27;99272.41;5377080;26;19937;-88
2024/04/10 02:47:05;;;;;;;;;;;;;;;4.99;95.20;99269.25;5352590;26;19955;-89
2024/04/10 02:49:30;;;;;;;;;;;;;;;4.89;94.94;99271.34;5361153;26;19967;-88
2024/04/10 02:51:56;;;;;;;;;;;;;;;4.99;94.65;99271.91;5386365;26;19937;-89
2024/04/10 02:54:21;;;;;;;;;;;;;;;4.97;94.13;99281.47;5350470;26;19962;-89
2024/04/10 02:56:46;;;;;;;;;;;;;;;5.08;93.86;99277.75;5414817;26;19936;-88
2024/04/10 02:59:12;;;;;;;;;;;;;;;5.12;93.02;99280.63;5365274;26;19937;-90
2024/04/10 03:01:39;;;;;;;;;;;;;;;5.17;92.73;99277.34;5424867;26;20000;-88
2024/04/10 03:04:05;;;;;;;;;;;;;;;5.28;91.59;99277.16;5367224;26;19940;-89
2024/04/10 03:06:30;;;;;;;;;;;;;;;5.15;91.92;99274.63;5374872;26;20367;-88
2024/04/10 03:08:55;;;;;;;;;;;;;;;5.19;90.94;99281.91;5363474;26;20286;-90
2024/04/10 03:11:21;;;;;;;;;;;;;;;5.22;89.11;99282.13;5413107;26;19930;-88
2024/04/10 03:13:46;;;;;;;;;;;;;;;4.93;89.80;99295.31;5420179;26;19930;-88
2024/04/10 03:16:12;;;;;;;;;;;;;;;4.86;90.32;99291.41;5339639;26;19935;-89
2024/04/10 03:18:37;;;;;;;;;;;;;;;5.09;89.41;99292.78;5379649;26;20351;-89
2024/04/10 03:21:02;;;;;;;;;;;;;;;5.11;88.78;99294.69;5368568;26;20268;-89
2024/04/10 03:23:29;;;;;;;;;;;;;;;5.29;88.01;99292.22;5358414;26;19940;-89
2024/04/10 03:26:04;;;;;;;;;;;;;;;5.39;86.84;99297.22;5366921;26;19930;-89
2024/04/10 03:28:30;;;;;;;;;;;;;;;5.52;85.30;99296.22;5348303;26;19937;-89
2024/04/10 03:30:55;;;;;;;;;;;;;;;5.51;85.22;99299.69;5351606;26;19974;-88
2024/04/10 03:33:22;;;;;;;;;;;;;;;5.45;85.26;99298.41;5380454;26;19940;-89
2024/04/10 03:35:48;;;;;;;;;;;;;;;5.26;85.79;99299.97;5339307;26;19931;-89
2024/04/10 03:38:14;;;;;;;;;;;;;;;5.26;85.83;99309.63;5370566;26;19930;-89
2024/04/10 03:40:41;;;;;;;;;;;;;;;5.42;85.92;99307.09;5369084;26;19949;-89
2024/04/10 03:43:07;;;;;;;;;;;;;;;5.43;85.74;99305.34;5355685;26;19969;-90
2024/04/10 03:45:33;;;;;;;;;;;;;;;5.36;86.21;99312.91;5367269;26;19929;-89
2024/04/10 03:47:58;;;;;;;;;;;;;;;5.27;86.57;99307.09;5353950;26;19941;-89
2024/04/10 03:50:24;;;;;;;;;;;;;;;5.23;86.91;99315.66;5408636;26;20370;-90
2024/04/10 03:52:49;;;;;;;;;;;;;;;5.11;88.23;99326.41;5422820;26;19973;-90
2024/04/10 03:55:16;;;;;;;;;;;;;;;5.13;88.39;99331.81;5350916;26;19936;-89
2024/04/10 03:57:46;;;;;;;;;;;;;;;5.10;88.60;99328.97;5374259;26;19936;-90
2024/04/10 04:00:12;;;;;;;;;;;;;;;5.10;88.35;99342.22;5381544;26;19929;-90
2024/04/10 04:02:44;;;;;;;;;;;;;;;5.04;88.81;99344.50;5372875;26;19941;-91
2024/04/10 04:05:09;;;;;;;;;;;;;;;5.10;88.76;99358.06;5413551;26;19930;-89
2024/04/10 04:07:35;;;;;;;;;;;;;;;5.11;89.34;99355.50;5419254;26;19957;-89
2024/04/10 04:10:00;;;;;;;;;;;;;;;5.04;89.24;99365.66;5361120;26;20383;-89
2024/04/10 04:12:26;;;;;;;;;;;;;;;4.97;90.09;99358.13;5412182;26;19938;-88
2024/04/10 04:14:51;;;;;;;;;;;;;;;5.03;89.88;99361.16;5367650;26;20045;-89
2024/04/10 04:17:18;;;;;;;;;;;;;;;5.05;89.88;99368.38;5371814;26;19961;-87
2024/04/10 04:19:44;;;;;;;;;;;;;;;5.13;90.01;99377.69;5354773;26;19941;-89
2024/04/10 04:22:09;;;;;;;;;;;;;;;5.14;89.12;99389.19;5367957;26;19933;-89
2024/04/10 04:24:34;;;;;;;;;;;;;;;5.26;89.31;99389.91;5418442;26;20639;-89
2024/04/10 04:27:00;;;;;;;;;;;;;;;5.47;88.71;99389.41;5367708;26;19930;-90
2024/04/10 04:29:25;;;;;;;;;;;;;;;5.36;89.28;99400.22;5364728;26;19937;-89
2024/04/10 04:31:50;;;;;;;;;;;;;;;5.42;89.17;99397.06;5368295;26;19958;-90
2024/04/10 04:34:17;;;;;;;;;;;;;;;5.42;89.29;99389.13;5369871;26;20011;-89
2024/04/10 04:36:43;;;;;;;;;;;;;;;5.52;88.80;99399.44;5390816;26;19929;-89
2024/04/10 04:39:08;;;;;;;;;;;;;;;5.60;89.03;99400.78;5366820;26;19937;-90
2024/04/10 04:41:35;;;;;;;;;;;;;;;5.70;88.29;99412.84;5430228;26;19930;-89
2024/04/10 04:44:01;;;;;;;;;;;;;;;5.83;88.54;99409.16;5379014;26;20248;-89
2024/04/10 04:46:26;;;;;;;;;;;;;;;5.76;87.20;99415.84;5364095;26;20388;-89
2024/04/10 04:48:52;;;;;;;;;;;;;;;5.80;86.47;99415.22;5415915;26;19936;-88
2024/04/10 04:51:17;;;;;;;;;;;;;;;5.86;86.60;99412.91;5412568;26;19945;-89
2024/04/10 04:53:42;;;;;;;;;;;;;;;5.86;86.43;99402.31;5415224;26;19934;-89
2024/04/10 04:56:08;;;;;;;;;;;;;;;5.82;87.20;99402.06;5370707;26;19936;-87
2024/04/10 04:58:33;;;;;;;;;;;;;;;5.86;87.02;99401.41;5370122;26;19938;-89
2024/04/10 05:00:59;;;;;;;;;;;;;;;5.85;87.00;99405.81;5354041;26;19937;-88
2024/04/10 05:06:09;;;;;;;;;;;;;;;5.62;89.21;99416.75;5353334;26;19941;-88
2024/04/10 05:08:34;;;;;;;;;;;;;;;5.61;88.49;99418.50;5364599;26;19938;-88
2024/04/10 05:11:03;;;;;;;;;;;;;;;5.57;89.06;99419.13;5350439;26;20307;-89
2024/04/10 05:13:28;;;;;;;;;;;;;;;5.58;89.85;99428.91;5358590;26;19930;-89
2024/04/10 05:15:57;;;;;;;;;;;;;;;5.52;89.71;99432.94;5355278;26;19944;-88
2024/04/10 05:18:22;;;;;;;;;;;;;;;5.44;89.84;99436.84;5391798;26;19938;-88
2024/04/10 05:20:48;;;;;;;;;;;;;;;5.31;90.03;99435.16;5351380;26;19937;-88
2024/04/10 05:23:13;;;;;;;;;;;;;;;5.24;90.14;99439.19;5370066;26;20000;-89
2024/04/10 05:25:38;;;;;;;;;;;;;;;5.42;90.23;99446.44;5417553;26;19941;-90
2024/04/10 05:28:04;;;;;;;;;;;;;;;5.54;90.44;99441.84;5372330;26;20374;-88
2024/04/10 05:30:31;;;;;;;;;;;;;;;5.66;89.67;99442.59;5373424;26;19957;-89
2024/04/10 05:32:56;;;;;;;;;;;;;;;5.72;89.41;99448.25;5362418;26;19936;-88
2024/04/10 05:35:22;;;;;;;;;;;;;;;5.98;88.64;99455.09;5397559;26;19930;-90
2024/04/10 05:37:47;;;;;;;;;;;;;;;6.34;87.23;99459.00;5409788;26;20350;-89
2024/04/10 05:40:18;;;;;;;;;;;;;;;6.46;86.05;99460.50;5358912;26;19936;-89
2024/04/10 05:42:44;;;;;;;;;;;;;;;6.42;85.77;99464.75;5416682;26;19929;-88
2024/04/10 05:45:13;;;;;;;;;;;;;;;6.53;84.42;99466.25;5370226;26;20300;-90
2024/04/10 05:47:40;;;;;;;;;;;;;;;6.71;83.24;99466.38;5367370;26;19930;-88
2024/04/10 05:50:07;;;;;;;;;;;;;;;6.77;83.29;99476.44;5357238;26;19936;-88
2024/04/10 05:52:33;;;;;;;;;;;;;;;7.13;80.76;99474.88;5359203;26;19980;-88
2024/04/10 05:54:58;;;;;;;;;;;;;;;7.57;78.74;99479.94;5354515;26;19969;-88
2024/04/10 05:57:26;;;;;;;;;;;;;;;8.03;77.21;99477.00;5409289;26;19930;-89
2024/04/10 05:59:56;;;;;;;;;;;;;;;8.27;74.80;99479.97;5366845;26;19999;-90
2024/04/10 06:02:22;;;;;;;;;;;;;;;8.64;73.49;99476.50;5355651;26;19949;-89
2024/04/10 06:04:57;;;;;;;;;;;;;;;8.93;71.76;99485.91;5349485;26;20458;-88
2024/04/10 06:07:24;;;;;;;;;;;;;;;9.22;70.81;99492.59;5380800;26;19930;-90
2024/04/10 06:09:53;;;;;;;;;;;;;;;9.50;67.75;99500.09;5355356;26;19958;-90
2024/04/10 06:12:18;;;;;;;;;;;;;;;9.08;67.97;99496.34;5357919;26;19929;-91
2024/04/10 06:14:44;;;;;;;;;;;;;;;9.33;67.89;99495.75;5356021;26;19936;-89
2024/04/10 06:17:10;;;;;;;;;;;;;;;9.23;68.99;99505.06;5419961;26;19937;-90
2024/04/10 06:19:35;;;;;;;;;;;;;;;9.37;68.38;99513.69;5397410;26;19933;-90
2024/04/10 06:22:00;;;;;;;;;;;;;;;9.58;67.46;99509.38;5352549;26;20240;-89
2024/04/10 06:24:26;;;;;;;;;;;;;;;9.80;66.73;99510.31;5412077;26;19929;-90
2024/04/10 06:26:51;;;;;;;;;;;;;;;10.20;64.37;99516.53;5356324;26;19945;-90
2024/04/10 06:29:17;;;;;;;;;;;;;;;9.80;64.64;99510.31;5371846;26;19936;-87
2024/04/10 06:31:43;;;;;;;;;;;;;;;9.60;66.32;99523.66;5373682;26;19937;-90
2024/04/10 06:34:08;;;;;;;;;;;;;;;9.76;66.35;99523.50;5361600;26;19969;-89
2024/04/10 06:36:34;;;;;;;;;;;;;;;9.79;65.90;99529.81;5393632;26;19930;-89
2024/04/10 06:38:59;;;;;;;;;;;;;;;9.77;66.48;99521.72;5370193;26;19930;-90
2024/04/10 06:41:25;;;;;;;;;;;;;;;9.67;66.39;99524.84;5374454;26;20557;-90
2024/04/10 06:43:50;;;;;;;;;;;;;;;9.81;65.36;99523.69;5402485;26;19934;-89
2024/04/10 06:46:17;;;;;;;;;;;;;;;9.74;65.21;99529.63;5348792;26;19937;-90
2024/04/10 06:48:44;;;;;;;;;;;;;;;9.64;66.53;99520.28;5395973;26;19999;-89
2024/04/10 06:51:10;;;;;;;;;;;;;;;9.74;66.32;99527.84;5376424;26;19941;-89
2024/04/10 06:53:35;;;;;;;;;;;;;;;9.46;66.45;99536.34;5372813;26;19934;-90
2024/04/10 06:56:06;;;;;;;;;;;;;;;9.72;64.80;99533.94;5353824;26;19934;-89
2024/04/10 06:58:42;;;;;;;;;;;;;;;9.70;64.91;99551.63;5356895;26;19929;-90
2024/04/10 07:01:18;;;;;;;;;;;;;;;9.69;65.68;99545.41;5375130;26;19930;-89
2024/04/10 07:03:43;;;;;;;;;;;;;;;9.99;64.71;99545.84;5360561;26;19937;-90
2024/04/10 07:06:10;;;;;;;;;;;;;;;9.88;63.91;99547.13;5432381;26;19929;-90
2024/04/10 07:08:36;;;;;;;;;;;;;;;9.96;64.01;99551.03;5378693;26;20009;-90
2024/04/10 07:11:20;;;;;;;;;;;;;;;10.11;63.47;99553.50;5372650;26;20376;-90
2024/04/10 07:13:50;;;;;;;;;;;;;;;10.18;63.81;99558.25;5345316;26;19942;-90
2024/04/10 07:16:16;;;;;;;;;;;;;;;10.17;63.16;99555.50;5407226;26;19930;-90
2024/04/10 07:18:42;;;;;;;;;;;;;;;10.43;62.71;99567.34;5349995;26;19964;-90
2024/04/10 07:21:08;;;;;;;;;;;;;;;10.41;61.91;99563.72;5362465;26;19936;-90
2024/04/10 07:23:37;;;;;;;;;;;;;;;10.32;62.86;99561.53;5375730;26;20535;-89
2024/04/10 07:26:12;;;;;;;;;;;;;;;10.61;61.99;99564.56;5353435;26;20009;-91
2024/04/10 07:28:44;;;;;;;;;;;;;;;10.81;61.45;99568.97;5360996;26;19930;-90
2024/04/10 07:31:10;;;;;;;;;;;;;;;10.51;62.24;99564.16;5377008;26;19930;-90
2024/04/10 07:33:37;;;;;;;;;;;;;;;10.48;62.27;99573.78;5425372;26;19988;-91
2024/04/10 07:36:09;;;;;;;;;;;;;;;10.06;63.27;99583.44;5367257;26;20000;-89
2024/04/10 07:38:35;;;;;;;;;;;;;;;10.01;63.51;99580.56;5405102;26;19929;-89
2024/04/10 07:41:00;;;;;;;;;;;;;;;10.08;63.75;99590.69;5362318;26;19958;-90
2024/04/10 07:43:26;;;;;;;;;;;;;;;9.96;63.97;99603.44;5369390;26;19992;-88
2024/04/10 07:45:51;;;;;;;;;;;;;;;9.97;63.94;99600.88;5368981;26;19934;-90
2024/04/10 07:48:17;;;;;;;;;;;;;;;10.08;63.61;99606.69;5370058;26;19930;-88
2024/04/10 07:50:42;;;;;;;;;;;;;;;10.23;63.21;99599.34;5373529;26;19941;-89
2024/04/10 07:53:08;;;;;;;;;;;;;;;10.68;61.93;99611.97;5421729;26;19937;-89
2024/04/10 07:55:33;;;;;;;;;;;;;;;10.28;62.08;99610.25;5355795;26;19929;-89
2024/04/10 07:57:58;;;;;;;;;;;;;;;10.12;63.16;99607.72;5376784;26;20267;-90
2024/04/10 08:00:24;;;;;;;;;;;;;;;10.37;62.10;99618.69;5378282;26;20232;-89
2024/04/10 08:02:49;;;;;;;;;;;;;;;10.47;62.62;99620.00;5369533;26;19999;-90
2024/04/10 08:05:16;;;;;;;;;;;;;;;10.59;62.19;99617.88;5419357;26;19972;-90
2024/04/10 08:07:41;;;;;;;;;;;;;;;10.92;60.79;99622.78;5363750;26;20079;-90
2024/04/10 08:10:08;;;;;;;;;;;;;;;10.76;61.13;99627.50;5376301;26;20334;-90
2024/04/10 08:12:34;;;;;;;;;;;;;;;10.72;60.61;99628.19;5420599;26;19930;-91
2024/04/10 08:14:59;;;;;;;;;;;;;;;11.28;60.33;99627.00;5361877;26;20020;-91
2024/04/10 08:17:25;;;;;;;;;;;;;;;11.54;60.30;99627.13;5362438;26;19937;-88
2024/04/10 08:19:53;;;;;;;;;;;;;;;12.00;57.78;99627.19;5381363;26;20027;-90
2024/04/10 08:22:18;;;;;;;;;;;;;;;11.68;57.87;99647.28;5362405;26;19930;-89
2024/04/10 08:24:44;;;;;;;;;;;;;;;11.27;58.06;99645.63;5407562;26;20370;-90
2024/04/10 08:27:09;;;;;;;;;;;;;;;11.56;57.89;99634.34;5418191;26;19940;-89
2024/04/10 08:29:34;;;;;;;;;;;;;;;11.52;58.14;99640.44;5371164;26;19948;-88
2024/04/10 08:32:00;;;;;;;;;;;;;;;11.33;58.86;99648.56;5375902;26;19969;-88
2024/04/10 08:34:25;;;;;;;;;;;;;;;11.67;58.46;99648.13;5373837;26;20374;-90
2024/04/10 08:36:51;;;;;;;;;;;;;;;11.78;57.45;99646.78;5375749;26;19934;-91
2024/04/10 08:39:19;;;;;;;;;;;;;;;11.51;57.35;99641.28;5358087;26;20271;-89
2024/04/10 08:41:45;;;;;;;;;;;;;;;11.61;57.26;99650.59;5368121;26;19938;-90
2024/04/10 08:44:11;;;;;;;;;;;;;;;11.60;56.65;99656.78;5358109;26;19938;-90
2024/04/10 08:46:38;;;;;;;;;;;;;;;11.93;55.56;99662.56;5358961;26;19938;-90
2024/04/10 08:49:03;;;;;;;;;;;;;;;12.26;54.44;99653.97;5351818;26;19937;-89
2024/04/10 08:51:30;;;;;;;;;;;;;;;12.01;55.79;99653.06;5418352;26;19930;-89
2024/04/10 08:53:58;;;;;;;;;;;;;;;11.66;57.43;99661.47;5365611;26;19960;-89
2024/04/10 08:56:23;;;;;;;;;;;;;;;12.31;55.36;99657.72;5363002;26;19937;-91
2024/04/10 08:58:48;;;;;;;;;;;;;;;12.41;54.34;99662.59;5374765;26;20211;-89
2024/04/10 09:01:28;;;;;;;;;;;;;;;12.49;54.71;99652.16;5425803;26;19961;-90
2024/04/10 09:03:54;;;;;;;;;;;;;;;12.18;56.41;99669.78;5388768;26;19930;-89
2024/04/10 09:06:19;;;;;;;;;;;;;;;11.88;55.88;99672.19;5359837;26;19937;-91
2024/04/10 09:08:54;;;;;;;;;;;;;;;11.55;57.82;99685.09;5364554;26;19930;-89
2024/04/10 09:11:23;;;;;;;;;;;;;;;11.69;57.11;99673.19;5401980;26;19942;-88
2024/04/10 09:13:59;;;;;;;;;;;;;;;11.79;56.32;99670.03;5364957;26;19973;-91
2024/04/10 09:16:24;;;;;;;;;;;;;;;12.14;55.06;99688.31;5418172;26;19933;-91
2024/04/10 09:18:49;;;;;;;;;;;;;;;13.58;52.46;99680.94;5367111;26;20302;-90
2024/04/10 09:21:15;;;;;;;;;;;;;;;14.16;50.14;99673.81;5428590;26;19937;-91
2024/04/10 09:23:40;;;;;;;;;;;;;;;14.87;48.79;99678.59;5373014;26;19975;-89
2024/04/10 09:26:06;;;;;;;;;;;;;;;14.28;49.27;99684.94;5369476;26;19983;-91
2024/04/10 09:28:32;;;;;;;;;;;;;;;14.43;49.23;99693.41;5364435;26;20259;-93
2024/04/10 09:30:57;;;;;;;;;;;;;;;14.15;48.59;99685.41;5378533;26;19937;-92
2024/04/10 09:33:23;;;;;;;;;;;;;;;14.54;48.86;99691.06;5366129;26;19934;-91
2024/04/10 09:35:48;;;;;;;;;;;;;;;15.11;45.96;99696.25;5363905;26;19929;-90
2024/04/10 09:38:15;;;;;;;;;;;;;;;15.20;45.88;99692.88;5374519;26;19989;-91
2024/04/10 09:40:43;;;;;;;;;;;;;;;14.28;49.05;99692.97;5348056;26;19929;-89
2024/04/10 09:43:13;;;;;;;;;;;;;;;13.98;48.74;99691.16;5368375;26;19999;-90
2024/04/10 09:45:43;;;;;;;;;;;;;;;15.31;45.62;99689.59;5360583;26;20410;-90
2024/04/10 09:48:11;;;;;;;;;;;;;;;16.49;42.55;99689.69;5356557;26;19937;-90
2024/04/10 09:50:37;;;;;;;;;;;;;;;17.12;40.44;99688.25;5415369;26;19942;-90
2024/04/10 09:53:03;;;;;;;;;;;;;;;18.07;38.68;99695.25;5358677;26;19930;-89
2024/04/10 09:55:32;;;;;;;;;;;;;;;19.24;36.64;99698.50;5369744;26;19930;-89
2024/04/10 09:57:58;;;;;;;;;;;;;;;17.85;37.27;99691.31;5427342;26;19941;-89
2024/04/10 10:00:24;;;;;;;;;;;;;;;17.42;37.95;99712.16;5427542;26;19953;-89
2024/04/10 10:02:50;;;;;;;;;;;;;;;16.31;40.63;99708.16;5405048;26;19929;-90
2024/04/10 10:05:22;;;;;;;;;;;;;;;16.00;39.48;99707.47;5422184;26;20319;-90
2024/04/10 10:07:49;;;;;;;;;;;;;;;17.01;39.22;99703.28;5355908;26;19942;-89
2024/04/10 10:10:16;;;;;;;;;;;;;;;16.21;38.90;99709.72;5359175;26;19938;-90
2024/04/10 10:12:44;;;;;;;;;;;;;;;14.69;43.95;99710.31;5369246;26;19937;-89
2024/04/10 10:15:10;;;;;;;;;;;;;;;17.07;38.67;99704.34;5353563;26;19930;-91
2024/04/10 10:17:36;;;;;;;;;;;;;;;16.97;37.29;99702.34;5366154;26;19937;-91
2024/04/10 10:20:03;;;;;;;;;;;;;;;18.50;34.84;99704.84;5415842;26;19937;-91
2024/04/10 10:22:28;;;;;;;;;;;;;;;18.67;34.24;99694.22;5405187;26;19937;-91
2024/04/10 10:25:00;;;;;;;;;;;;;;;18.83;33.56;99703.44;5429384;26;19974;-89
2024/04/10 10:27:26;;;;;;;;;;;;;;;20.47;31.06;99692.25;5375903;26;19985;-90
2024/04/10 10:30:06;;;;;;;;;;;;;;;20.01;31.63;99691.94;5366646;26;19930;-92
2024/04/10 10:32:32;;;;;;;;;;;;;;;20.34;30.17;99690.34;5446213;26;19930;-92
2024/04/10 10:35:07;;;;;;;;;;;;;;;19.25;32.54;99715.63;5422907;26;19929;-90
2024/04/10 10:37:34;;;;;;;;;;;;;;;17.63;36.96;99707.13;5409724;26;19937;-90
2024/04/10 10:40:01;;;;;;;;;;;;;;;16.75;37.61;99711.78;5372281;26;19929;-94
2024/04/10 10:42:29;;;;;;;;;;;;;;;15.64;39.80;99697.63;5408613;26;19922;-89
2024/04/10 10:45:06;;;;;;;;;;;;;;;14.37;43.34;99706.63;5381159;26;19930;-92
2024/04/10 10:47:38;;;;;;;;;;;;;;;14.49;43.28;99696.31;5389583;26;19975;-91
2024/04/10 10:50:06;;;;;;;;;;;;;;;14.24;44.31;99694.66;5366391;26;19937;-89
2024/04/10 10:52:32;;;;;;;;;;;;;;;15.07;42.24;99689.84;5431411;26;19929;-88
2024/04/10 10:55:04;;;;;;;;;;;;;;;17.64;34.66;99676.56;5376714;26;19937;-88
2024/04/10 10:57:31;;;;;;;;;;;;;;;20.17;30.94;99666.78;5378293;26;19975;-89
2024/04/10 10:59:58;;;;;;;;;;;;;;;21.55;29.24;99656.34;5364460;26;19934;-90
2024/04/10 11:02:23;;;;;;;;;;;;;;;21.38;28.70;99660.88;5416353;26;19942;-87
2024/04/10 11:04:49;;;;;;;;;;;;;;;21.00;28.42;99664.41;5369808;26;19930;-89
2024/04/10 11:07:15;;;;;;;;;;;;;;;17.98;30.89;99673.50;5364229;26;20321;-88
2024/04/10 11:09:40;;;;;;;;;;;;;;;17.82;32.98;99675.03;5366921;26;20003;-90
2024/04/10 11:12:07;;;;;;;;;;;;;;;17.73;31.23;99680.31;5392288;26;19938;-89
2024/04/10 11:14:32;;;;;;;;;;;;;;;19.47;28.66;99667.16;5362540;26;19936;-88
2024/04/10 11:17:03;;;;;;;;;;;;;;;20.53;28.81;99658.84;5352299;26;19931;-87
2024/04/10 11:19:28;;;;;;;;;;;;;;;20.98;28.96;99649.91;5341181;26;20008;-88
2024/04/10 11:21:53;;;;;;;;;;;;;;;19.75;29.53;99653.88;5414046;26;19937;-88
2024/04/10 11:24:20;;;;;;;;;;;;;;;18.07;31.52;99652.94;5355999;26;19961;-88
2024/04/10 11:26:46;;;;;;;;;;;;;;;19.76;28.83;99658.38;5346270;26;19930;-88
2024/04/10 11:29:11;;;;;;;;;;;;;;;19.37;30.69;99658.94;5407228;26;19938;-89
2024/04/10 11:31:37;;;;;;;;;;;;;;;19.30;31.57;99665.19;5350588;26;19954;-88
2024/04/10 11:34:02;;;;;;;;;;;;;;;22.19;26.96;99647.25;5352726;26;20415;-87
2024/04/10 11:36:27;;;;;;;;;;;;;;;21.19;27.25;99655.41;5358016;26;19929;-87
2024/04/10 11:38:53;;;;;;;;;;;;;;;19.62;28.92;99660.97;5341916;26;19937;-87
2024/04/10 11:41:18;;;;;;;;;;;;;;;17.53;33.07;99669.16;5354533;26;19929;-88
2024/04/10 11:43:44;;;;;;;;;;;;;;;16.37;34.36;99678.63;5345705;26;19934;-87
2024/04/10 11:46:10;;;;;;;;;;;;;;;16.26;35.12;99669.44;5359059;26;19936;-88
2024/04/10 11:48:35;;;;;;;;;;;;;;;17.39;33.71;99658.13;5353546;26;19930;-88
2024/04/10 11:51:01;;;;;;;;;;;;;;;21.29;28.13;99647.28;5352641;26;19946;-88
2024/04/10 11:53:26;;;;;;;;;;;;;;;22.84;25.52;99650.56;5342845;26;19941;-88
2024/04/10 11:55:52;;;;;;;;;;;;;;;22.96;24.62;99645.09;5325294;26;19937;-87
2024/04/10 11:58:18;;;;;;;;;;;;;;;24.41;23.00;99635.63;5355686;26;20599;-88
2024/04/10 12:00:44;;;;;;;;;;;;;;;24.88;22.29;99645.03;5420523;26;20810;-87
2024/04/10 12:03:09;;;;;;;;;;;;;;;23.80;23.14;99645.34;5334982;26;20026;-88
2024/04/10 12:05:36;;;;;;;;;;;;;;;23.02;23.91;99642.34;5347460;26;19934;-88
2024/04/10 12:08:02;;;;;;;;;;;;;;;23.58;23.35;99643.72;5347159;26;20370;-88
2024/04/10 12:10:28;;;;;;;;;;;;;;;23.87;22.95;99638.03;5370149;26;19977;-87
2024/04/10 12:12:53;;;;;;;;;;;;;;;23.99;24.25;99645.16;5378893;26;19998;-89
2024/04/10 12:15:19;;;;;;;;;;;;;;;24.25;22.87;99651.25;5395938;26;19930;-89
2024/04/10 12:17:44;;;;;;;;;;;;;;;24.27;22.78;99643.94;5413145;26;19998;-86
2024/04/10 12:20:09;;;;;;;;;;;;;;;24.77;21.60;99641.56;5371690;26;20341;-88
2024/04/10 12:22:35;;;;;;;;;;;;;;;23.83;23.19;99647.16;5359935;26;19977;-88
2024/04/10 12:25:01;;;;;;;;;;;;;;;24.46;22.53;99633.75;5364928;26;19930;-87
2024/04/10 12:27:27;;;;;;;;;;;;;;;24.54;22.46;99631.84;5422157;26;19933;-88
2024/04/10 12:29:53;;;;;;;;;;;;;;;24.41;22.72;99630.19;5363434;26;19930;-87
2024/04/10 12:32:18;;;;;;;;;;;;;;;23.18;23.63;99640.41;5360296;26;19929;-87
2024/04/10 12:34:44;;;;;;;;;;;;;;;23.32;23.90;99646.66;5328954;26;19942;-88
2024/04/10 12:39:53;;;;;;;;;;;;;;;24.90;21.50;99636.81;5359694;26;19930;-88
2024/04/10 12:42:18;;;;;;;;;;;;;;;24.44;22.41;99621.97;5415071;26;19974;-88
2024/04/10 12:44:44;;;;;;;;;;;;;;;22.15;25.06;99627.31;5355692;26;19958;-88
2024/04/10 12:47:09;;;;;;;;;;;;;;;24.75;23.05;99622.44;5359608;26;19929;-88
2024/04/10 12:49:36;;;;;;;;;;;;;;;25.58;22.06;99616.66;5355349;26;19937;-87
2024/04/10 12:52:02;;;;;;;;;;;;;;;24.77;22.20;99622.44;5375729;26;19941;-88
2024/04/10 12:54:27;;;;;;;;;;;;;;;22.71;23.92;99625.25;5352347;26;19929;-88